Terminal Aerodrome Forecast
Issued by NWS Memphis, TN

Home | Current Version | Previous Version | Text Only | Print | Product List | Glossary On
Versions: 1 2 3 4 5 6 7 8 9 10 11 12 13 14 15 16 17 18 19 20
684
FTUS44 KMEG 271735
TAFMKL
TAF
KMKL 271735Z 2718/2818 20012G20KT P6SM VCTS BKN035CB BKN090 BKN150
     FM272200 20010KT 3SM -TSRA BR OVC035CB
      TEMPO 2722/2801 VRB10G25KT 1SM +TSRA OVC025CB
     FM280300 30010KT P6SM SCT070 BKN150
     FM280600 31003KT 5SM BR SCT025
      TEMPO 2808/2812 2SM BR
     FM281200 36004KT P6SM BKN015=

USA.gov is the U.S. government's official web portal to all federal, state and local government web resources and services.